Impacts METAR Board
IDs:

KPDX - Portland Intl Arpt, OR, US

Updated at: 0300 UTC 16 Aug 2018
Potential Impact None Slight Moderate High
Time 15/15Z 15/16Z 15/17Z 15/18Z 15/19Z 15/20Z 15/21Z 15/22Z 15/23Z 16/00Z 16/01Z 16/02Z 16/03Z
Temp67 67 70 74 76 79 82 85 87 88 88 85 81
Dewpt59 59 59 58 57 60 59 58 59 59 61 61 61
Altim29.93 29.93 29.93 29.92 29.91 29.89 29.87 29.86 29.85 29.84 29.84 29.84 29.85
VIS4 4 5 5 4 4 4 4 4 4 4 5 5
CIG40 40 40 40 40 40 40 40 40 50 50 50 50
CoverOVCOVCBKNBKNOVCOVCOVCOVCOVCOVCOVCOVCOVC
FltCatMVFRMVFRMVFRMVFRMVFRMVFRMVFRMVFRMVFRMVFRMVFRMVFRMVFR
WXFUFUFUFUFUFUFUFUFUFUFUFUFU
WDir27029003100280290280280280290340280
WSpd4 6 0 4 4 5 4 7 6 8 9 3 7
WGst-- -- -- -- -- -- -- -- -- -- -- -- --
Raw hourly METARs
KPDX 151453Z 27004KT 4SM FU OVC040 19/15 A2993 RMK AO2 SLP133 FU OVC040 T01940150 53017
KPDX 151553Z 29006KT 4SM FU OVC040 19/15 A2993 RMK AO2 SLP134 FU OVC040 T01940150
KPDX 151653Z 00000KT 5SM FU BKN040 21/15 A2993 RMK AO2 SLP133 FU BKN040 T02110150
KPDX 151753Z 31004KT 5SM FU BKN040 23/14 A2992 RMK AO2 SLP131 FU BKN040 T02330144 10233 20178 58002
KPDX 151853Z VRB04KT 4SM FU OVC040 24/14 A2991 RMK AO2 SLP127 FU OVC040 T02440139
KPDX 151953Z 28005KT 4SM FU OVC040 26/16 A2989 RMK AO2 SLP121 FU OVC040 T02610156
KPDX 152053Z 29004KT 4SM FU OVC040 28/15 A2987 RMK AO2 SLP115 FU OVC040 T02780150 58016
KPDX 152153Z 28007KT 4SM FU OVC040 29/14 A2986 RMK AO2 SLP110 FU OVC040 T02940144
KPDX 152253Z 28006KT 4SM FU BKN040 OVC180 31/15 A2985 RMK AO2 SLP106 FU BKN040 T03060150
KPDX 152353Z 28008KT 4SM FU BKN050 OVC190 31/15 A2984 RMK AO2 SLP103 FU BKN050 T03110150 10317 20228 56011
KPDX 160053Z 29009KT 4SM FU BKN050 OVC190 31/16 A2984 RMK AO2 SLP105 FU BKN050 T03110161
KPDX 160153Z 34003KT 5SM FU BKN050 OVC190 29/16 A2984 RMK AO2 SLP105 FU BKN050 T02940161
KPDX 160253Z 28007KT 5SM FU BKN050 OVC190 27/16 A2985 RMK AO2 SLP108 FU BKN050 T02720161 53005



Page loaded:  03:08 UTC  |   08:08 PM Pacific  |   09:08 PM Mountain  |   10:08 PM Central  |   11:08 PM Eastern

 

ADVISORIES

FORECASTS

FORECASTS

OBSERVATIONS

USER TOOLS

ABOUT US